createdAt,value
2022-09-03T00:00:37.129Z,0.9
2022-09-03T00:01:44.850Z,0.7
2022-09-03T00:02:54.614Z,1.1
2022-09-03T00:04:04.129Z,1
2022-09-03T00:05:11.790Z,0.8
2022-09-03T00:06:21.485Z,1.1
2022-09-03T00:07:30.159Z,0.9
2022-09-03T00:08:39.822Z,1.1
2022-09-03T00:09:48.483Z,0.9
2022-09-03T00:10:57.156Z,1.3
2022-09-03T00:12:05.822Z,1.2
2022-09-03T00:13:13.470Z,1
2022-09-03T00:14:23.131Z,1.1
2022-09-03T00:15:31.791Z,1.3
2022-09-03T00:16:39.432Z,1.1
2022-09-03T00:17:49.128Z,1.1
2022-09-03T00:18:56.797Z,1.1
2022-09-03T00:20:05.461Z,1.2
2022-09-03T00:21:15.137Z,1.1
2022-09-03T00:22:22.791Z,0.9
2022-09-03T00:23:32.467Z,0.8
2022-09-03T00:24:41.121Z,0.7
2022-09-03T00:25:49.790Z,0.9
2022-09-03T00:26:59.456Z,0.7
2022-09-03T00:28:08.132Z,0.8
2022-09-03T00:29:15.828Z,0.8
2022-09-03T00:30:25.501Z,0.5
2022-09-03T00:31:33.278Z,0.8
2022-09-03T00:32:42.821Z,0.7
2022-09-03T00:33:51.471Z,0.7
2022-09-03T00:35:01.220Z,0.6
2022-09-03T00:36:10.875Z,0.7
2022-09-03T00:37:20.524Z,0.6
2022-09-03T00:38:29.191Z,0.7
2022-09-03T00:39:38.855Z,0.4
2022-09-03T00:40:46.539Z,0.6
2022-09-03T00:41:56.193Z,0.6
2022-09-03T00:43:04.856Z,0.6
2022-09-03T00:44:13.499Z,0.4
2022-09-03T00:45:23.151Z,0.6
2022-09-03T00:46:31.899Z,0.6
2022-09-03T00:47:40.508Z,0.4
2022-09-03T00:48:50.205Z,0.6
2022-09-03T00:49:58.893Z,0.4
2022-09-03T00:51:08.564Z,0.5
2022-09-03T00:52:18.356Z,0.7
2022-09-03T00:53:27.012Z,0.6
2022-09-03T00:54:36.687Z,0.6
2022-09-03T00:55:44.329Z,0.5
2022-09-03T00:56:52.983Z,0.7
2022-09-03T00:58:02.650Z,0.9
2022-09-03T00:59:10.298Z,0.7
2022-09-03T01:00:19.980Z,0.4
2022-09-03T01:01:27.711Z,0.6
2022-09-03T01:02:36.479Z,0.8
2022-09-03T01:03:45.986Z,0.7
2022-09-03T01:04:53.669Z,0.5
2022-09-03T01:06:03.317Z,0.6
2022-09-03T01:07:13.010Z,0.7
2022-09-03T01:08:20.666Z,0.8
2022-09-03T01:09:30.361Z,0.7
2022-09-03T01:10:39.026Z,0.9
2022-09-03T01:11:46.682Z,1
2022-09-03T01:12:56.344Z,0.7
2022-09-03T01:14:03.987Z,0.7
2022-09-03T01:15:12.672Z,0.7
2022-09-03T01:16:21.416Z,0.5
2022-09-03T01:17:30.077Z,0.7
2022-09-03T01:18:39.748Z,0.6
2022-09-03T01:19:48.435Z,0.5
2022-09-03T01:20:57.115Z,0.7
2022-09-03T01:22:06.787Z,0.4
2022-09-03T01:23:14.441Z,0.5
2022-09-03T01:24:23.122Z,0.5
2022-09-03T01:25:31.782Z,0.5
2022-09-03T01:26:40.530Z,0.4
2022-09-03T01:27:50.189Z,0.5
2022-09-03T01:28:58.859Z,0.5
2022-09-03T01:30:06.503Z,0.5
2022-09-03T01:31:16.217Z,0.6
2022-09-03T01:32:23.872Z,0.6
2022-09-03T01:33:32.553Z,0.9
2022-09-03T01:34:42.228Z,1
2022-09-03T01:35:50.916Z,0.9
2022-09-03T01:37:00.611Z,0.8
2022-09-03T01:38:09.298Z,1.1
2022-09-03T01:39:16.994Z,0.8
2022-09-03T01:40:26.642Z,0.9
2022-09-03T01:41:34.298Z,0.8
2022-09-03T01:42:42.963Z,0.7
2022-09-03T01:43:52.638Z,1
2022-09-03T01:45:02.326Z,1
2022-09-03T01:46:12.019Z,0.9
2022-09-03T01:47:20.637Z,0.8
2022-09-03T01:48:30.302Z,0.8
2022-09-03T01:49:40.007Z,0.8
2022-09-03T01:50:48.669Z,0.6
2022-09-03T01:51:58.327Z,0.5
2022-09-03T01:53:07.979Z,0.9
2022-09-03T01:54:18.210Z,0.7
2022-09-03T01:55:28.399Z,0.5
2022-09-03T01:56:38.107Z,0.9
2022-09-03T01:57:46.710Z,0.7
2022-09-03T01:58:56.382Z,0.7
2022-09-03T02:00:05.024Z,0.8
2022-09-03T02:01:14.778Z,0.8
2022-09-03T02:02:24.411Z,0.6
2022-09-03T02:03:32.073Z,0.6
2022-09-03T02:04:41.823Z,0.8
2022-09-03T02:05:50.485Z,0.6
2022-09-03T02:07:00.232Z,0.6
2022-09-03T02:08:11.527Z,0.6
2022-09-03T02:09:18.636Z,0.6
2022-09-03T02:10:28.311Z,0.8
2022-09-03T02:11:36.963Z,0.8
2022-09-03T02:12:45.666Z,0.6
2022-09-03T02:13:55.331Z,0.8
2022-09-03T02:15:04.013Z,0.8
2022-09-03T02:16:13.751Z,0.7
2022-09-03T02:17:22.345Z,0.8
2022-09-03T02:18:31.020Z,0.9
2022-09-03T02:19:40.689Z,0.6
2022-09-03T02:20:48.382Z,0.8
2022-09-03T02:21:57.086Z,0.8
2022-09-03T02:23:06.784Z,0.7
2022-09-03T02:24:16.462Z,0.7
2022-09-03T02:25:26.128Z,0.6
2022-09-03T02:26:34.825Z,0.7
2022-09-03T02:27:44.468Z,1.1
2022-09-03T02:28:54.157Z,0.6
2022-09-03T02:30:02.825Z,0.6
2022-09-03T02:31:11.592Z,0.7
2022-09-03T02:32:21.130Z,0.6
2022-09-03T02:33:28.780Z,0.5
2022-09-03T02:34:38.475Z,0.8
2022-09-03T02:35:47.158Z,0.6
2022-09-03T02:36:54.817Z,0.8
2022-09-03T02:38:04.477Z,0.7
2022-09-03T02:39:53.281Z,0.6
2022-09-03T02:41:01.989Z,0.9
2022-09-03T02:43:43.919Z,0.8
2022-09-03T02:44:51.585Z,0.8
2022-09-03T02:46:01.377Z,0.5
2022-09-03T02:47:11.082Z,0.6
2022-09-03T02:48:19.756Z,1
2022-09-03T02:49:29.424Z,0.8
2022-09-03T02:50:39.164Z,1.1
2022-09-03T02:51:47.912Z,1.3
2022-09-03T02:52:57.596Z,1.1
2022-09-03T02:54:06.257Z,0.9
2022-09-03T02:55:14.943Z,0.9
2022-09-03T02:56:23.623Z,0.9
2022-09-03T02:57:31.303Z,1.2
2022-09-03T02:58:40.969Z,0.8
2022-09-03T02:59:48.626Z,0.9
2022-09-03T03:00:57.330Z,1
2022-09-03T03:02:06.955Z,0.7
2022-09-03T03:03:14.639Z,0.9
2022-09-03T03:04:24.322Z,0.8
2022-09-03T03:05:33.970Z,1.1
2022-09-03T03:06:42.627Z,0.9
2022-09-03T03:07:53.424Z,0.9
2022-09-03T03:09:01.097Z,0.6
2022-09-03T03:10:10.785Z,1
2022-09-03T03:11:20.438Z,0.9
2022-09-03T03:12:29.105Z,0.7
2022-09-03T03:13:38.781Z,0.7
2022-09-03T03:14:47.441Z,0.7
2022-09-03T03:15:57.113Z,0.5
2022-09-03T03:17:06.820Z,1
2022-09-03T03:18:14.455Z,0.7
2022-09-03T03:19:23.137Z,0.9
2022-09-03T03:20:32.918Z,0.8
2022-09-03T03:21:41.623Z,0.9
2022-09-03T03:22:51.299Z,0.7
2022-09-03T03:23:59.968Z,0.8
2022-09-03T03:25:07.655Z,0.5
2022-09-03T03:26:17.337Z,0.8
2022-09-03T03:27:26.029Z,0.9
2022-09-03T03:28:34.680Z,0.7
2022-09-03T03:29:44.343Z,0.8
2022-09-03T03:30:52.058Z,0.9
2022-09-03T03:32:01.722Z,0.9
2022-09-03T03:33:10.461Z,1.1
2022-09-03T03:34:19.115Z,0.9
2022-09-03T03:35:28.789Z,1
2022-09-03T03:36:37.451Z,0.8
2022-09-03T03:37:46.191Z,0.9
2022-09-03T03:38:55.853Z,0.9
2022-09-03T03:40:03.570Z,1.2
2022-09-03T03:41:13.212Z,1.1
2022-09-03T03:42:21.859Z,1.4
2022-09-03T03:43:29.569Z,1.4
2022-09-03T03:44:39.255Z,1.5
2022-09-03T03:45:46.948Z,1.5
2022-09-03T03:46:55.686Z,1.5
2022-09-03T03:48:05.369Z,1.6
2022-09-03T03:49:14.046Z,1.8
2022-09-03T03:50:23.733Z,1.9
2022-09-03T03:51:32.388Z,1.5
2022-09-03T03:52:40.072Z,1.6
2022-09-03T03:53:49.777Z,1.6
2022-09-03T03:54:58.546Z,1.4
2022-09-03T03:56:06.322Z,1.4
2022-09-03T03:57:16.017Z,1.7
2022-09-03T03:58:24.809Z,1.2
2022-09-03T03:59:33.333Z,1.2
2022-09-03T04:00:43.056Z,1.5
2022-09-03T04:01:50.724Z,1
2022-09-03T04:03:00.437Z,1.1
2022-09-03T04:04:09.081Z,0.8
2022-09-03T04:05:17.730Z,1.2
2022-09-03T04:06:28.439Z,1
2022-09-03T04:07:38.137Z,1
2022-09-03T04:08:47.778Z,1.2
2022-09-03T04:09:58.462Z,0.8
2022-09-03T04:11:08.127Z,0.7
2022-09-03T04:12:17.824Z,0.9
2022-09-03T04:13:27.466Z,0.9
2022-09-03T04:14:35.146Z,0.9
2022-09-03T04:15:43.881Z,1.1
2022-09-03T04:16:51.592Z,0.9
2022-09-03T04:18:01.258Z,0.8
2022-09-03T04:19:10.921Z,0.6
2022-09-03T04:20:19.573Z,1
2022-09-03T04:21:29.289Z,0.9
2022-09-03T04:22:37.958Z,1
2022-09-03T04:23:45.626Z,1
2022-09-03T04:24:55.299Z,1.2
2022-09-03T04:26:03.024Z,1.5
2022-09-03T04:27:12.713Z,1.2
2022-09-03T04:28:22.475Z,1.5
2022-09-03T04:29:30.118Z,1.3
2022-09-03T04:30:39.860Z,1
2022-09-03T04:31:48.450Z,1.3
2022-09-03T04:32:56.149Z,1
2022-09-03T04:34:05.824Z,1.1
2022-09-03T04:35:14.494Z,1
2022-09-03T04:36:23.178Z,0.9
2022-09-03T04:37:32.934Z,1.3
2022-09-03T04:38:41.595Z,0.9
2022-09-03T04:39:51.312Z,0.8
2022-09-03T04:40:58.949Z,0.7
2022-09-03T04:42:08.621Z,1.1
2022-09-03T04:43:17.280Z,1.1
2022-09-03T04:44:25.926Z,0.9
2022-09-03T04:45:35.656Z,1
2022-09-03T04:46:43.314Z,0.8
2022-09-03T04:47:51.988Z,0.9
2022-09-03T04:49:01.640Z,1
2022-09-03T04:50:09.295Z,0.8
2022-09-03T04:51:18.965Z,0.8
2022-09-03T04:52:27.649Z,0.9
2022-09-03T04:53:35.303Z,1.1
2022-09-03T04:54:44.966Z,0.8
2022-09-03T04:55:52.655Z,0.9
2022-09-03T04:57:02.309Z,1.1
2022-09-03T04:58:12.114Z,1.3
2022-09-03T04:59:19.781Z,1
2022-09-03T05:00:29.443Z,0.7
2022-09-03T05:01:37.145Z,1
2022-09-03T05:02:44.741Z,1
2022-09-03T05:03:54.555Z,0.9
2022-09-03T05:05:02.211Z,0.7
2022-09-03T05:06:11.870Z,0.9
2022-09-03T05:07:21.524Z,0.9
2022-09-03T05:08:29.186Z,0.8
2022-09-03T05:09:38.875Z,0.7
2022-09-03T05:10:47.530Z,0.9
2022-09-03T05:11:56.224Z,0.8
2022-09-03T05:13:05.969Z,1
2022-09-03T05:14:13.608Z,0.9
2022-09-03T05:15:23.336Z,0.9
2022-09-03T05:16:33.037Z,0.8
2022-09-03T05:17:42.667Z,1
2022-09-03T05:18:52.324Z,0.9
2022-09-03T05:20:01.004Z,0.9
2022-09-03T05:21:09.706Z,1
2022-09-03T05:22:20.361Z,0.6
2022-09-03T05:23:29.031Z,0.5
2022-09-03T05:24:37.700Z,0.8
2022-09-03T05:25:47.339Z,0.9
2022-09-03T05:26:56.027Z,1.1
2022-09-03T05:28:05.678Z,0.6
2022-09-03T05:29:15.372Z,0.7
2022-09-03T05:30:23.004Z,1
2022-09-03T05:31:32.742Z,0.8
2022-09-03T05:32:40.368Z,1
2022-09-03T05:33:49.063Z,1.1
2022-09-03T05:34:58.721Z,1.2
2022-09-03T05:36:06.475Z,0.9
2022-09-03T05:37:16.153Z,1.4
2022-09-03T05:38:25.023Z,1.1
2022-09-03T05:39:32.590Z,0.7
2022-09-03T05:40:42.183Z,1.1
2022-09-03T05:41:50.838Z,0.7
2022-09-03T05:42:59.507Z,0.6
2022-09-03T05:44:09.258Z,0.6
2022-09-03T05:45:17.936Z,0.9
2022-09-03T05:46:27.628Z,0.8
2022-09-03T05:47:36.277Z,0.7
2022-09-03T05:48:43.950Z,0.7
2022-09-03T05:49:53.629Z,0.6
2022-09-03T05:51:01.285Z,0.6
2022-09-03T05:52:09.943Z,0.7
2022-09-03T05:53:19.641Z,0.6
2022-09-03T05:54:29.267Z,0.7
2022-09-03T05:55:38.955Z,0.8
2022-09-03T05:56:47.606Z,1
2022-09-03T05:58:02.399Z,1.2
2022-09-03T05:59:11.062Z,0.9
2022-09-03T06:00:20.719Z,1.1
2022-09-03T06:01:28.535Z,1.1
2022-09-03T06:02:38.331Z,0.8
2022-09-03T06:03:47.972Z,0.8
2022-09-03T06:04:56.586Z,0.9
2022-09-03T06:06:06.259Z,0.6
2022-09-03T06:07:14.947Z,0.8
2022-09-03T06:08:24.622Z,0.8
2022-09-03T06:09:34.279Z,0.9
2022-09-03T06:10:44.996Z,0.9
2022-09-03T06:11:54.564Z,0.8
2022-09-03T06:13:03.277Z,0.9
2022-09-03T06:14:12.938Z,0.7
2022-09-03T06:15:22.623Z,1.2
2022-09-03T06:16:32.412Z,0.7
2022-09-03T06:17:40.960Z,0.6
2022-09-03T06:18:50.671Z,0.7
2022-09-03T06:19:59.367Z,0.7
2022-09-03T06:21:09.062Z,0.6
2022-09-03T06:22:17.709Z,0.6
2022-09-03T06:23:27.404Z,0.6
2022-09-03T06:24:37.103Z,0.6
2022-09-03T06:25:45.948Z,0.6
2022-09-03T06:26:54.449Z,0.8
2022-09-03T06:28:04.122Z,0.5
2022-09-03T06:29:13.803Z,0.9
2022-09-03T06:30:23.518Z,0.4
2022-09-03T06:31:33.208Z,0.7
2022-09-03T06:32:41.848Z,0.9
2022-09-03T06:33:51.570Z,1
2022-09-03T06:35:00.228Z,1.2
2022-09-03T06:36:09.885Z,0.8
2022-09-03T06:37:19.548Z,1
2022-09-03T06:38:28.243Z,0.8
2022-09-03T06:39:37.955Z,0.8
2022-09-03T06:40:45.573Z,1
2022-09-03T06:41:55.265Z,0.8
2022-09-03T06:43:03.924Z,1.1
2022-09-03T06:44:11.911Z,0.8
2022-09-03T06:45:21.284Z,0.9
2022-09-03T06:46:30.946Z,0.9
2022-09-03T06:47:40.679Z,0.6
2022-09-03T06:48:50.343Z,0.7
2022-09-03T06:49:58.024Z,0.6
2022-09-03T06:51:07.796Z,1
2022-09-03T06:52:16.444Z,0.6
2022-09-03T06:53:24.128Z,0.6
2022-09-03T06:54:34.823Z,0.7
2022-09-03T06:55:44.482Z,0.6
2022-09-03T06:56:53.154Z,0.8
2022-09-03T06:58:02.825Z,1
2022-09-03T06:59:10.526Z,0.9
2022-09-03T07:00:20.296Z,0.9
2022-09-03T07:01:29.072Z,0.9
2022-09-03T07:02:39.704Z,0.9
2022-09-03T07:03:48.329Z,1.3
2022-09-03T07:04:56.020Z,1
2022-09-03T07:06:04.687Z,0.8
2022-09-03T07:07:14.362Z,1
2022-09-03T07:08:22.043Z,1
2022-09-03T07:09:31.686Z,0.9
2022-09-03T07:10:40.381Z,1
2022-09-03T07:11:50.143Z,1.6
2022-09-03T07:12:59.820Z,0.9
2022-09-03T07:14:08.491Z,0.6
2022-09-03T07:15:17.201Z,0.9
2022-09-03T07:16:26.898Z,1.3
2022-09-03T07:17:34.542Z,0.7
2022-09-03T07:18:44.205Z,0.7
2022-09-03T07:19:52.871Z,0.9
2022-09-03T07:21:00.514Z,0.6
2022-09-03T07:22:10.222Z,0.6
2022-09-03T07:23:18.872Z,0.5
2022-09-03T07:24:27.529Z,0.7
2022-09-03T07:25:37.179Z,0.6
2022-09-03T07:26:44.852Z,0.6
2022-09-03T07:27:55.533Z,0.7
2022-09-03T07:29:05.253Z,0.5
2022-09-03T07:30:13.936Z,0.8
2022-09-03T07:31:23.660Z,0.7
2022-09-03T07:32:32.294Z,0.4
2022-09-03T07:33:40.979Z,0.5
2022-09-03T07:34:50.633Z,0.5
2022-09-03T07:35:59.310Z,0.5
2022-09-03T07:37:08.987Z,0.5
2022-09-03T07:38:18.696Z,0.7
2022-09-03T07:39:26.418Z,0.7
2022-09-03T07:40:36.074Z,0.5
2022-09-03T07:41:44.734Z,0.8
2022-09-03T07:42:55.229Z,0.5
2022-09-03T07:44:04.083Z,0.6
2022-09-03T07:45:12.829Z,0.5
2022-09-03T07:46:21.537Z,0.6
2022-09-03T07:47:31.155Z,0.4
2022-09-03T07:48:39.849Z,0.8
2022-09-03T07:49:49.469Z,0.8
2022-09-03T07:50:57.159Z,0.6
2022-09-03T07:52:05.839Z,0.5
2022-09-03T07:53:15.506Z,0.6
2022-09-03T07:54:23.163Z,0.4
2022-09-03T07:55:31.900Z,0.7
2022-09-03T07:56:40.713Z,0.4
2022-09-03T07:57:49.288Z,0.3
2022-09-03T07:58:58.963Z,0.5
2022-09-03T08:00:06.873Z,0.6
2022-09-03T08:01:15.332Z,0.5
2022-09-03T08:02:25.018Z,0.6
2022-09-03T08:03:34.703Z,0.7
2022-09-03T08:04:44.359Z,0.7
2022-09-03T08:05:54.053Z,0.7
2022-09-03T08:07:01.743Z,0.6
2022-09-03T08:08:11.453Z,0.7
2022-09-03T08:09:20.126Z,1
2022-09-03T08:10:28.818Z,1
2022-09-03T08:11:38.492Z,0.9
2022-09-03T08:12:46.147Z,0.8
2022-09-03T08:13:55.979Z,1
2022-09-03T08:15:05.637Z,0.7
2022-09-03T08:16:13.416Z,0.9
2022-09-03T08:17:23.071Z,0.9
2022-09-03T08:18:31.726Z,0.8
2022-09-03T08:19:40.440Z,0.8
2022-09-03T08:20:50.123Z,0.6
2022-09-03T08:21:57.784Z,0.7
2022-09-03T08:23:07.482Z,0.7
2022-09-03T08:24:16.203Z,0.8
2022-09-03T08:25:23.903Z,0.6
2022-09-03T08:26:33.595Z,0.8
2022-09-03T08:27:41.257Z,0.8
2022-09-03T08:28:49.920Z,0.9
2022-09-03T08:29:59.576Z,0.9
2022-09-03T08:31:07.376Z,0.7
2022-09-03T08:32:16.926Z,0.9
2022-09-03T08:33:25.581Z,0.6
2022-09-03T08:34:33.240Z,0.6
2022-09-03T08:35:42.924Z,0.7
2022-09-03T08:36:51.612Z,0.5
2022-09-03T08:38:01.279Z,0.6
2022-09-03T08:39:11.174Z,0.9
2022-09-03T08:40:19.680Z,1.8
2022-09-03T08:41:29.306Z,1.2
2022-09-03T08:42:38.023Z,1
2022-09-03T08:43:47.688Z,0.8
2022-09-03T08:44:56.342Z,0.8
2022-09-03T08:46:04.029Z,0.7
2022-09-03T08:47:13.689Z,0.8
2022-09-03T08:48:25.185Z,0.4
2022-09-03T08:49:31.125Z,1
2022-09-03T08:50:40.778Z,0.6
2022-09-03T08:51:49.422Z,0.6
2022-09-03T08:52:59.090Z,0.7
2022-09-03T08:54:06.786Z,0.7
2022-09-03T08:55:15.455Z,0.5
2022-09-03T08:56:25.137Z,0.5
2022-09-03T08:57:33.819Z,0.7
2022-09-03T08:58:42.486Z,0.6
2022-09-03T08:59:52.191Z,0.8
2022-09-03T09:00:59.861Z,1.4
2022-09-03T09:02:09.641Z,0.8
2022-09-03T09:03:19.273Z,0.5
2022-09-03T09:04:26.931Z,0.8
2022-09-03T09:05:36.617Z,0.3
2022-09-03T09:06:46.325Z,0.6
2022-09-03T09:07:54.981Z,0.6
2022-09-03T09:09:04.697Z,0.3
2022-09-03T09:10:12.387Z,0.5
2022-09-03T09:11:22.092Z,0.3
2022-09-03T09:12:35.734Z,0.3
2022-09-03T09:13:39.402Z,0.3
2022-09-03T09:14:49.074Z,1
2022-09-03T09:15:57.784Z,0.4
2022-09-03T09:17:06.430Z,0.7
2022-09-03T09:18:16.128Z,0.5
2022-09-03T09:19:23.746Z,0.4
2022-09-03T09:20:33.404Z,0.4
2022-09-03T09:21:43.055Z,0.2
2022-09-03T09:22:51.705Z,0.5
2022-09-03T09:24:01.370Z,0.6
2022-09-03T09:25:09.123Z,0.2
2022-09-03T09:26:18.823Z,0.2
2022-09-03T09:27:28.481Z,0.3
2022-09-03T09:28:36.175Z,0.4
2022-09-03T09:29:45.874Z,0.2
2022-09-03T09:30:55.646Z,0.3
2022-09-03T09:32:05.219Z,0.3
2022-09-03T09:33:14.955Z,0.3
2022-09-03T09:34:23.670Z,0.3
2022-09-03T09:35:32.355Z,0.3
2022-09-03T09:36:42.024Z,0.4
2022-09-03T09:37:49.684Z,0.4
2022-09-03T09:38:59.364Z,0.4
2022-09-03T09:40:09.050Z,0.2
2022-09-03T09:41:16.705Z,0.2
2022-09-03T09:42:26.399Z,0.4
2022-09-03T09:43:34.066Z,0.4
2022-09-03T09:44:42.721Z,0.2
2022-09-03T09:45:52.427Z,0.2
2022-09-03T09:47:00.163Z,0.3
2022-09-03T09:48:09.845Z,0.2
2022-09-03T09:49:18.508Z,0.2
2022-09-03T09:50:27.164Z,0.3
2022-09-03T09:51:36.896Z,0.3
2022-09-03T09:52:44.543Z,0.4
2022-09-03T09:53:53.244Z,0.3
2022-09-03T09:55:02.921Z,0.2
2022-09-03T09:56:12.615Z,0.4
2022-09-03T09:57:22.345Z,0.4
2022-09-03T09:58:32.044Z,0.5
2022-09-03T09:59:39.713Z,0.5
2022-09-03T10:00:49.398Z,0.2
2022-09-03T10:01:58.190Z,0.4
2022-09-03T10:03:07.038Z,0.2
2022-09-03T10:04:16.656Z,0.2
2022-09-03T10:05:24.319Z,0.2
2022-09-03T10:06:33.994Z,0.3
2022-09-03T10:07:42.665Z,0.1
2022-09-03T10:08:51.346Z,0.3
2022-09-03T10:10:00.996Z,0.2
2022-09-03T10:11:09.682Z,0.3
2022-09-03T10:12:17.314Z,0.3
2022-09-03T10:13:27.006Z,0.2
2022-09-03T10:14:34.853Z,0.2
2022-09-03T10:15:45.541Z,0.2
2022-09-03T10:16:55.393Z,0.1
2022-09-03T10:18:05.129Z,0.3
2022-09-03T10:19:14.821Z,0.1
2022-09-03T10:20:23.673Z,0.5
2022-09-03T10:21:32.343Z,0.1
2022-09-03T10:22:47.152Z,0.2
2022-09-03T10:23:51.612Z,0.2
2022-09-03T10:25:01.273Z,0.1
2022-09-03T10:26:09.966Z,0.2
2022-09-03T10:27:17.626Z,0.3
2022-09-03T10:28:27.485Z,0.3
2022-09-03T10:29:35.941Z,0.2
2022-09-03T10:30:45.706Z,0.3
2022-09-03T10:31:55.466Z,0.1
2022-09-03T10:33:05.151Z,0.1
2022-09-03T10:34:14.921Z,0.2
2022-09-03T10:35:22.589Z,0.2
2022-09-03T10:36:32.289Z,0.2
2022-09-03T10:37:42.033Z,0.2
2022-09-03T10:38:50.697Z,0.2
2022-09-03T10:40:00.434Z,0.1
2022-09-03T10:41:10.075Z,0.1
2022-09-03T10:42:18.727Z,0.3
2022-09-03T10:43:27.403Z,0.4
2022-09-03T10:44:36.104Z,0.2
2022-09-03T10:45:45.783Z,0.3
2022-09-03T10:46:55.452Z,0.1
2022-09-03T10:48:03.097Z,0.3
2022-09-03T10:49:12.807Z,0.3
2022-09-03T10:50:20.450Z,0.1
2022-09-03T10:51:29.143Z,0.1
2022-09-03T10:52:38.818Z,0.2
2022-09-03T10:53:46.501Z,0.2
2022-09-03T10:54:57.186Z,0.4
2022-09-03T10:56:05.855Z,0.2
2022-09-03T10:57:14.517Z,0.2
2022-09-03T10:58:24.297Z,0.3
2022-09-03T10:59:33.905Z,0.3
2022-09-03T11:00:42.606Z,0.2
2022-09-03T11:01:52.324Z,0.2
2022-09-03T11:03:01.094Z,0.2
2022-09-03T11:04:10.624Z,0.2
2022-09-03T11:05:20.290Z,0.2
2022-09-03T11:06:28.975Z,0.2
2022-09-03T11:07:38.679Z,0.2
2022-09-03T11:08:47.338Z,0.1
2022-09-03T11:09:56.025Z,0.2
2022-09-03T11:11:05.686Z,0.2
2022-09-03T11:12:13.367Z,0.2
2022-09-03T11:13:23.066Z,0.2
2022-09-03T11:14:31.706Z,0.1
2022-09-03T11:15:39.438Z,0.1
2022-09-03T11:16:49.062Z,0.1
2022-09-03T11:17:56.746Z,0.1
2022-09-03T11:19:06.429Z,0.1
2022-09-03T11:20:16.101Z,0
2022-09-03T11:21:24.747Z,0.2
2022-09-03T11:22:34.428Z,0.1
2022-09-03T11:23:43.214Z,0.1
2022-09-03T11:24:50.887Z,0.1
2022-09-03T11:26:00.577Z,0.2
2022-09-03T11:27:09.256Z,0
2022-09-03T11:28:18.948Z,0.1
2022-09-03T11:29:28.649Z,0
2022-09-03T11:30:36.346Z,0.1
2022-09-03T11:31:45.998Z,0.2
2022-09-03T11:32:56.056Z,0
2022-09-03T11:34:04.311Z,0.2
2022-09-03T11:35:13.056Z,0.1
2022-09-03T11:36:21.704Z,0.1
2022-09-03T11:37:31.372Z,0.1
2022-09-03T11:38:41.074Z,0.1
2022-09-03T11:39:48.830Z,0.2
2022-09-03T11:40:58.429Z,0.1
2022-09-03T11:42:07.096Z,0.2
2022-09-03T11:43:15.782Z,0.2
2022-09-03T11:44:25.434Z,0.1
2022-09-03T11:45:33.128Z,0.1
2022-09-03T11:46:41.818Z,0
2022-09-03T11:47:51.492Z,0.4
2022-09-03T11:49:00.190Z,0.2
2022-09-03T11:50:08.854Z,0.1
2022-09-03T11:51:17.551Z,0.1
2022-09-03T11:52:25.222Z,0.1
2022-09-03T11:53:34.882Z,0.2
2022-09-03T11:54:43.546Z,0.2
2022-09-03T11:55:52.208Z,0.3
2022-09-03T11:57:01.867Z,0.2
2022-09-03T11:58:09.546Z,0.3
2022-09-03T11:59:19.236Z,0.2
2022-09-03T12:00:27.910Z,0.2
2022-09-03T12:01:36.589Z,0.2
2022-09-03T12:02:46.360Z,0.2
2022-09-03T12:03:54.960Z,0.2
2022-09-03T12:05:03.738Z,0.2
2022-09-03T12:06:13.278Z,0.1
2022-09-03T12:07:22.927Z,0.1
2022-09-03T12:08:32.614Z,0.2
2022-09-03T12:09:42.298Z,0.1
2022-09-03T12:10:51.956Z,0.1
2022-09-03T12:12:01.607Z,0.3
2022-09-03T12:13:10.271Z,0.1
2022-09-03T12:14:18.918Z,0.1
2022-09-03T12:15:28.718Z,0.1
2022-09-03T12:16:37.388Z,0.1
2022-09-03T12:17:47.064Z,0.1
2022-09-03T12:18:55.721Z,0
2022-09-03T12:20:05.404Z,0.2
2022-09-03T12:21:15.084Z,0.1
2022-09-03T12:22:23.774Z,0.2
2022-09-03T12:23:32.446Z,0
2022-09-03T12:24:42.086Z,0.1
2022-09-03T12:25:49.752Z,0.2
2022-09-03T12:26:59.464Z,0.1
2022-09-03T12:28:08.131Z,0.1
2022-09-03T12:29:15.786Z,0.1
2022-09-03T12:30:25.444Z,0.1
2022-09-03T12:31:34.124Z,0.1
2022-09-03T12:32:43.852Z,0.1
2022-09-03T12:33:52.495Z,0.1
2022-09-03T12:35:01.154Z,0
2022-09-03T12:36:10.847Z,0.1
2022-09-03T12:37:18.804Z,0.3
2022-09-03T12:38:28.170Z,0.1
2022-09-03T12:41:59.160Z,0.2
2022-09-03T12:44:18.516Z,0.1
2022-09-03T12:46:09.700Z,0.2
2022-09-03T12:46:37.888Z,0.2
2022-09-03T12:47:47.591Z,0.3
2022-09-03T12:50:05.951Z,0.1
2022-09-03T12:52:25.271Z,0.2
2022-09-03T12:53:34.948Z,0.1
2022-09-03T12:54:44.607Z,0.1
2022-09-03T12:55:54.288Z,0.1
2022-09-03T12:57:03.975Z,0.2
2022-09-03T12:58:14.198Z,0.1
2022-09-03T12:59:22.277Z,0.2
2022-09-03T13:00:32.055Z,0.1
2022-09-03T13:01:40.972Z,0.1
2022-09-03T13:02:49.489Z,0
2022-09-03T13:03:59.157Z,0.1
2022-09-03T13:05:06.820Z,0.1
2022-09-03T13:06:16.475Z,0.1
2022-09-03T13:07:24.159Z,0.1
2022-09-03T13:08:32.824Z,0.1
2022-09-03T13:09:42.488Z,0.1
2022-09-03T13:10:50.188Z,0.1
2022-09-03T13:11:58.856Z,0.2
2022-09-03T13:13:08.566Z,0.1
2022-09-03T13:14:17.241Z,0.1
2022-09-03T13:15:26.925Z,0.1
2022-09-03T13:16:35.640Z,0.1
2022-09-03T13:17:43.235Z,0
2022-09-03T13:18:52.940Z,0.1
2022-09-03T13:20:00.594Z,0.1
2022-09-03T13:21:09.254Z,0
2022-09-03T13:22:18.925Z,0.1
2022-09-03T13:23:27.577Z,0.1
2022-09-03T13:24:37.350Z,0.1
2022-09-03T13:25:46.036Z,0.1
2022-09-03T13:26:53.741Z,0.1
2022-09-03T13:28:03.429Z,0.2
2022-09-03T13:29:13.095Z,0.3
2022-09-03T13:30:21.921Z,0.2
2022-09-03T13:31:31.691Z,0.4
2022-09-03T13:32:40.330Z,0.2
2022-09-03T13:33:49.987Z,0.3
2022-09-03T13:34:58.729Z,0
2022-09-03T13:36:08.454Z,0.1
2022-09-03T13:37:18.115Z,0.1
2022-09-03T13:38:25.785Z,0.1
2022-09-03T13:39:34.493Z,0.2
2022-09-03T13:40:44.144Z,0.4
2022-09-03T13:41:51.829Z,0.4
2022-09-03T13:43:01.500Z,0.3
2022-09-03T13:44:11.162Z,0.3
2022-09-03T13:45:19.849Z,0.2
2022-09-03T13:46:29.491Z,0.1
2022-09-03T13:47:37.238Z,0.3
2022-09-03T13:48:45.900Z,0.9
2022-09-03T13:49:55.558Z,0.4
2022-09-03T13:51:03.195Z,0.1
2022-09-03T13:52:12.859Z,0.2
2022-09-03T13:53:21.540Z,0.2
2022-09-03T13:54:49.354Z,0.3
2022-09-03T13:55:42.865Z,0.1
2022-09-03T13:56:51.550Z,0.1
2022-09-03T13:58:02.147Z,0.2
2022-09-03T13:59:11.937Z,0.2
2022-09-03T14:00:20.595Z,0.3
2022-09-03T14:01:30.304Z,0.1
2022-09-03T14:02:39.014Z,0.2
2022-09-03T14:03:49.235Z,0.1
2022-09-03T14:04:58.328Z,0.2
2022-09-03T14:06:07.075Z,0.4
2022-09-03T14:07:15.729Z,0.2
2022-09-03T14:08:25.399Z,0.2
2022-09-03T14:09:35.065Z,0.2
2022-09-03T14:10:44.776Z,0.1
2022-09-03T14:11:52.435Z,0.2
2022-09-03T14:13:00.110Z,0.3
2022-09-03T14:14:09.789Z,0.1
2022-09-03T14:15:18.436Z,0.2
2022-09-03T14:16:27.170Z,0.3
2022-09-03T14:17:35.827Z,0.2
2022-09-03T14:18:44.516Z,0.3
2022-09-03T14:19:53.204Z,0.2
2022-09-03T14:21:01.861Z,0.3
2022-09-03T14:22:10.553Z,0.3
2022-09-03T14:23:20.274Z,0.4
2022-09-03T14:24:27.923Z,0.2
2022-09-03T14:25:36.664Z,0.2
2022-09-03T14:26:46.349Z,0.1
2022-09-03T14:27:54.022Z,0.2
2022-09-03T14:29:03.707Z,0.2
2022-09-03T14:30:11.405Z,0.2
2022-09-03T14:31:21.165Z,0.2
2022-09-03T14:32:29.765Z,0.4
2022-09-03T14:33:37.494Z,0.2
2022-09-03T14:34:47.169Z,0.3
2022-09-03T14:35:56.856Z,0.4
2022-09-03T14:37:05.536Z,0.2
2022-09-03T14:38:15.216Z,0.4
2022-09-03T14:39:24.435Z,0.3
2022-09-03T14:40:34.605Z,0.3
2022-09-03T14:41:43.316Z,0.1
2022-09-03T14:42:50.970Z,0.1
2022-09-03T14:44:00.644Z,0.1
2022-09-03T14:45:09.326Z,0.3
2022-09-03T14:46:18.021Z,0.2
2022-09-03T14:47:27.644Z,0.1
2022-09-03T14:48:36.321Z,0.2
2022-09-03T14:49:45.978Z,0.3
2022-09-03T14:50:55.105Z,0.2
2022-09-03T14:52:02.343Z,0
2022-09-03T14:53:12.026Z,0.2
2022-09-03T14:54:20.693Z,0.2
2022-09-03T14:55:29.365Z,0.1
2022-09-03T14:56:39.041Z,0.1
2022-09-03T14:57:47.718Z,0.3
2022-09-03T14:58:58.473Z,0.2
2022-09-03T15:00:06.091Z,0.4
2022-09-03T15:01:13.854Z,0.2
2022-09-03T15:02:23.557Z,0.2
2022-09-03T15:03:32.279Z,0.3
2022-09-03T15:04:40.963Z,0.2
2022-09-03T15:05:50.650Z,0.5
2022-09-03T15:06:58.351Z,0.7
2022-09-03T15:08:08.059Z,0.5
2022-09-03T15:09:16.731Z,0.4
2022-09-03T15:10:24.391Z,0.4
2022-09-03T15:11:34.089Z,0.4
2022-09-03T15:12:42.755Z,0.2
2022-09-03T15:13:52.497Z,0.3
2022-09-03T15:15:02.176Z,0.2
2022-09-03T15:16:09.854Z,0.4
2022-09-03T15:17:19.501Z,0.3
2022-09-03T15:18:28.170Z,0.2
2022-09-03T15:19:35.858Z,0.2
2022-09-03T15:20:44.523Z,0.4
2022-09-03T15:21:53.212Z,0.3
2022-09-03T15:23:01.850Z,0.2
2022-09-03T15:24:11.510Z,0.4
2022-09-03T15:25:19.189Z,0.3
2022-09-03T15:26:28.897Z,0.2
2022-09-03T15:27:38.532Z,0.3
2022-09-03T15:28:46.223Z,0.3
2022-09-03T15:29:55.907Z,0.2
2022-09-03T15:31:03.609Z,0.2
2022-09-03T15:32:14.384Z,2.7
2022-09-03T15:33:23.926Z,0.6
2022-09-03T15:34:31.588Z,0.4
2022-09-03T15:35:41.276Z,0.7
2022-09-03T15:36:50.126Z,0.6
2022-09-03T15:37:57.838Z,0.4
2022-09-03T15:39:07.521Z,0.3
2022-09-03T15:40:15.287Z,0.3
2022-09-03T15:41:24.958Z,0.3
2022-09-03T15:42:34.686Z,0.2
2022-09-03T15:43:43.389Z,0.2
2022-09-03T15:44:54.110Z,0.3
2022-09-03T15:46:02.892Z,0.2
2022-09-03T15:47:14.310Z,0.3
2022-09-03T15:48:23.208Z,0.4
2022-09-03T15:49:31.867Z,0.4
2022-09-03T15:50:41.530Z,0.6
2022-09-03T15:51:51.201Z,0.9
2022-09-03T15:53:00.887Z,0.6
2022-09-03T15:54:10.571Z,0.5
2022-09-03T15:55:20.270Z,0.6
2022-09-03T15:56:27.976Z,0.6
2022-09-03T15:57:37.700Z,0.3
2022-09-03T15:58:45.374Z,0.5
2022-09-03T15:59:55.107Z,0.3
2022-09-03T16:01:04.823Z,0.2
2022-09-03T16:02:12.414Z,0.3
2022-09-03T16:03:24.193Z,0.4